Time;durP1;ratioP1;P1;durP2;ratioP2;P2;SDS_P1;SDS_P2;PMS_P1;PMS_P2;Temp;Humidity;BMP_temperature;BMP_pressure;BME280_temperature;BME280_humidity;BME280_pressure;Samples;Min_cycle;Max_cycle;Signal;HPM_P1;HPM_P2
2021/07/13 00:01:33;;;;;;;7.05;4.33;;;;;;;23.61;63.03;100527.30;1743371;80;21054;-69
2021/07/13 00:03:59;;;;;;;6.60;4.58;;;;;;;23.56;62.98;100514.48;1737638;80;21082;-69
2021/07/13 00:06:27;;;;;;;7.70;4.28;;;;;;;23.50;63.10;100527.38;1743994;81;21081;-69
2021/07/13 00:08:53;;;;;;;6.97;4.80;;;;;;;23.48;63.05;100522.73;1750654;80;21055;-69
2021/07/13 00:11:21;;;;;;;8.18;4.75;;;;;;;23.49;62.87;100530.58;1748655;80;21094;-69
2021/07/13 00:13:50;;;;;;;6.83;3.90;;;;;;;23.52;62.83;100524.80;1749793;81;21058;-69
2021/07/13 00:16:18;;;;;;;8.95;4.83;;;;;;;23.54;62.76;100537.50;1751098;80;21066;-69
2021/07/13 00:18:45;;;;;;;6.17;4.20;;;;;;;23.53;63.15;100536.36;1744515;81;21019;-69
2021/07/13 00:21:11;;;;;;;8.03;4.53;;;;;;;23.50;63.18;100535.42;1738322;80;22185;-69
2021/07/13 00:23:38;;;;;;;7.03;4.30;;;;;;;23.47;63.41;100544.73;1754945;81;21094;-69
2021/07/13 00:26:04;;;;;;;7.85;4.35;;;;;;;23.43;63.59;100534.07;1748195;81;21106;-69
2021/07/13 00:28:33;;;;;;;9.55;4.42;;;;;;;23.40;63.56;100537.16;1746736;81;21058;-69
2021/07/13 00:31:00;;;;;;;6.83;3.70;;;;;;;23.40;63.36;100535.81;1737270;81;21071;-70
2021/07/13 00:33:26;;;;;;;7.42;3.70;;;;;;;23.43;63.00;100535.94;1730436;81;21078;-70
2021/07/13 00:35:53;;;;;;;6.62;4.05;;;;;;;23.44;62.70;100534.39;1744661;80;21085;-69
2021/07/13 00:38:20;;;;;;;6.75;4.08;;;;;;;23.43;62.57;100533.25;1729105;81;21050;-69
2021/07/13 00:40:46;;;;;;;6.65;4.10;;;;;;;23.39;62.30;100531.50;1721449;82;21030;-69
2021/07/13 00:43:13;;;;;;;7.20;4.25;;;;;;;23.36;62.08;100530.55;1740368;81;21555;-69
2021/07/13 00:45:40;;;;;;;8.70;4.72;;;;;;;23.34;61.99;100529.94;1729403;81;21533;-67
2021/07/13 00:48:07;;;;;;;8.68;4.78;;;;;;;23.29;62.18;100525.70;1732872;80;21117;-67
2021/07/13 00:50:34;;;;;;;6.53;4.10;;;;;;;23.26;63.09;100526.91;1764855;80;21046;-67
2021/07/13 00:53:03;;;;;;;10.15;5.17;;;;;;;23.27;63.60;100527.23;1740146;80;21125;-67
2021/07/13 00:55:30;;;;;;;6.10;4.00;;;;;;;23.32;63.60;100523.95;1736184;80;21095;-67
2021/07/13 00:57:57;;;;;;;7.03;3.65;;;;;;;23.34;63.82;100524.56;1746616;81;21038;-67
2021/07/13 01:00:23;;;;;;;6.08;4.17;;;;;;;23.34;63.52;100536.65;1736574;81;21576;-68
2021/07/13 01:02:55;;;;;;;6.25;4.30;;;;;;;23.31;63.21;100534.37;1743893;81;21632;-68
2021/07/13 01:05:26;;;;;;;6.45;4.12;;;;;;;23.27;63.06;100524.55;1734686;81;21062;-68
2021/07/13 01:08:25;;;;;;;8.48;4.70;;;;;;;23.24;63.22;100526.82;1746336;81;21125;-68
2021/07/13 01:11:07;;;;;;;6.55;4.40;;;;;;;23.18;63.39;100527.95;1729453;81;21090;-68
2021/07/13 01:13:42;;;;;;;7.55;4.78;;;;;;;23.08;64.03;100537.39;1731655;81;21082;-68
2021/07/13 01:16:37;;;;;;;7.67;4.42;;;;;;;23.04;64.55;100530.23;1730237;81;21031;-68
2021/07/13 01:19:34;;;;;;;6.35;4.22;;;;;;;23.04;64.90;100530.23;1744779;81;21074;-68
2021/07/13 01:22:07;;;;;;;7.05;5.10;;;;;;;23.07;64.81;100534.41;1732510;80;21082;-68
2021/07/13 01:25:02;;;;;;;6.92;5.12;;;;;;;23.04;65.08;100531.58;1720377;80;21173;-68
2021/07/13 01:27:46;;;;;;;8.73;5.55;;;;;;;23.00;65.36;100531.67;1734417;81;21207;-68
2021/07/13 01:30:21;;;;;;;7.87;5.47;;;;;;;22.94;65.67;100532.47;1729480;80;21540;-66
2021/07/13 01:32:50;;;;;;;9.25;5.35;;;;;;;22.88;65.75;100526.55;1730003;81;21059;-67
2021/07/13 01:35:29;;;;;;;10.43;6.25;;;;;;;22.87;65.76;100530.28;1751492;80;21098;-67
2021/07/13 01:37:55;;;;;;;7.97;5.55;;;;;;;22.89;65.67;100529.04;1740328;81;21070;-67
2021/07/13 01:40:22;;;;;;;9.93;5.90;;;;;;;22.90;65.53;100532.05;1749928;81;21070;-68
2021/07/13 01:42:49;;;;;;;7.67;5.35;;;;;;;22.91;65.59;100534.20;1736770;81;21046;-68
2021/07/13 01:45:16;;;;;;;8.30;6.03;;;;;;;22.90;65.56;100532.57;1717672;82;21055;-68
2021/07/13 01:47:43;;;;;;;8.45;5.67;;;;;;;22.91;65.42;100528.84;1724666;81;21050;-68
2021/07/13 01:50:11;;;;;;;8.60;5.50;;;;;;;22.90;65.52;100528.02;1737987;81;21872;-68
2021/07/13 01:52:39;;;;;;;12.33;6.03;;;;;;;22.87;65.46;100521.71;1725060;81;21054;-68
2021/07/13 01:55:06;;;;;;;10.53;6.10;;;;;;;22.88;65.41;100523.88;1725278;82;21597;-68
2021/07/13 01:57:35;;;;;;;7.35;5.05;;;;;;;22.91;65.55;100528.31;1729177;81;21074;-68
2021/07/13 02:00:04;;;;;;;9.15;5.85;;;;;;;22.95;65.44;100534.13;1731346;82;21107;-68
2021/07/13 02:02:32;;;;;;;8.70;5.95;;;;;;;22.96;65.36;100539.30;1735619;80;21087;-68
2021/07/13 02:04:59;;;;;;;7.12;5.42;;;;;;;22.95;65.26;100537.64;1735406;81;21542;-67
2021/07/13 02:07:27;;;;;;;7.55;5.60;;;;;;;22.95;65.27;100544.88;1722730;82;21158;-68
2021/07/13 02:09:54;;;;;;;9.25;5.58;;;;;;;22.94;65.76;100543.20;1737007;81;21071;-67
2021/07/13 02:12:21;;;;;;;8.63;5.83;;;;;;;22.91;66.19;100549.78;1738419;81;21051;-67
2021/07/13 02:14:48;;;;;;;8.05;5.67;;;;;;;22.88;66.24;100544.84;1727843;82;21141;-67
2021/07/13 02:17:14;;;;;;;9.00;5.85;;;;;;;22.91;66.03;100543.59;1717819;80;21550;-67
2021/07/13 02:19:41;;;;;;;9.43;6.65;;;;;;;22.93;65.68;100541.53;1731238;82;21047;-67
2021/07/13 02:22:08;;;;;;;13.00;6.80;;;;;;;22.94;65.48;100541.34;1707028;82;21133;-67
2021/07/13 02:24:36;;;;;;;8.50;6.15;;;;;;;22.96;65.39;100539.80;1735985;82;21110;-67
2021/07/13 02:27:10;;;;;;;8.65;5.95;;;;;;;22.99;65.35;100544.77;1740221;80;21095;-67
2021/07/13 02:29:56;;;;;;;11.33;6.42;;;;;;;23.00;65.19;100542.41;1736475;81;21559;-67
2021/07/13 02:32:32;;;;;;;8.10;5.53;;;;;;;23.01;65.04;100544.05;1742117;81;21576;-67
2021/07/13 02:35:00;;;;;;;;;;;;;;;23.05;64.87;100549.34;1743678;81;21094;-68
2021/07/13 02:37:27;;;;;;;7.30;5.42;;;;;;;23.08;64.83;100550.31;1746374;81;20252;-68
2021/07/13 02:39:54;;;;;;;8.55;6.28;;;;;;;23.07;64.85;100549.99;1750312;80;21415;-68
2021/07/13 02:42:22;;;;;;;9.75;5.08;;;;;;;23.10;64.91;100549.59;1750282;81;21063;-68
2021/07/13 02:44:48;;;;;;;7.58;5.28;;;;;;;23.13;64.65;100553.22;1733694;80;21121;-68
2021/07/13 02:47:15;;;;;;;7.75;5.03;;;;;;;23.15;64.51;100557.87;1748884;80;21095;-67
2021/07/13 02:49:47;;;;;;;7.85;5.40;;;;;;;23.15;64.80;100559.21;1730690;81;21027;-67
2021/07/13 02:52:16;;;;;;;8.65;4.67;;;;;;;23.15;64.73;100558.39;1732643;80;21129;-68
2021/07/13 02:54:44;;;;;;;8.55;5.60;;;;;;;23.15;64.64;100565.92;1740145;81;21113;-68
2021/07/13 02:57:11;;;;;;;9.28;5.42;;;;;;;23.20;64.81;100573.38;1721891;81;21129;-68
2021/07/13 02:59:39;;;;;;;8.45;5.17;;;;;;;23.23;64.80;100576.98;1723959;82;21106;-69
2021/07/13 03:02:06;;;;;;;7.60;4.05;;;;;;;23.26;64.96;100571.73;1738514;80;21066;-68
2021/07/13 03:04:33;;;;;;;7.25;5.10;;;;;;;23.27;65.16;100570.19;1714174;82;21098;-68
2021/07/13 03:07:01;;;;;;;6.90;4.25;;;;;;;23.29;65.25;100557.39;1735139;81;21684;-68
2021/07/13 03:09:28;;;;;;;7.90;4.62;;;;;;;23.31;65.40;100563.90;1724306;82;21082;-68
2021/07/13 03:11:56;;;;;;;7.08;4.53;;;;;;;23.33;65.62;100567.20;1744544;80;21101;-69
2021/07/13 03:14:23;;;;;;;6.30;4.45;;;;;;;23.39;65.75;100562.90;1740020;80;21141;-70
2021/07/13 03:16:50;;;;;;;6.97;4.33;;;;;;;23.44;65.80;100557.22;1747363;82;21102;-70
2021/07/13 03:19:17;;;;;;;6.80;4.92;;;;;;;23.51;65.58;100555.36;1732568;80;21025;-64
2021/07/13 03:21:54;;;;;;;6.87;4.60;;;;;;;23.58;65.39;100555.37;1735098;82;21117;-69
2021/07/13 03:24:22;;;;;;;6.70;4.62;;;;;;;23.63;65.28;100549.41;1726495;80;21680;-69
2021/07/13 03:26:49;;;;;;;8.35;4.90;;;;;;;23.65;65.19;100545.46;1723481;80;21050;-69
2021/07/13 03:29:16;;;;;;;6.83;4.12;;;;;;;23.70;64.96;100534.11;1733147;80;21122;-69
2021/07/13 03:31:43;;;;;;;6.78;4.10;;;;;;;23.72;64.61;100532.88;1733549;82;22127;-70
2021/07/13 03:34:09;;;;;;;8.68;4.62;;;;;;;23.77;64.50;100532.77;1739351;81;21113;-70
2021/07/13 03:36:37;;;;;;;8.00;4.55;;;;;;;23.84;64.24;100534.96;1731287;80;21194;-70
2021/07/13 03:39:03;;;;;;;8.35;4.60;;;;;;;23.88;64.05;100544.28;1712683;82;22322;-70
2021/07/13 03:41:30;;;;;;;8.63;4.37;;;;;;;23.87;63.70;100542.13;1707468;82;21105;-71
2021/07/13 03:44:03;;;;;;;7.10;4.72;;;;;;;23.88;64.00;100545.10;1743384;80;21121;-72
2021/07/13 03:46:36;;;;;;;7.78;4.25;;;;;;;23.91;64.17;100547.91;1733945;80;21066;-70
2021/07/13 03:49:04;;;;;;;6.47;4.40;;;;;;;23.95;63.87;100546.97;1746099;81;21066;-67
2021/07/13 03:51:44;;;;;;;5.70;4.22;;;;;;;23.97;63.65;100545.72;1744422;81;21580;-68
2021/07/13 03:54:13;;;;;;;7.45;4.72;;;;;;;24.06;63.60;100545.83;1716746;81;21066;-69
2021/07/13 03:56:40;;;;;;;7.45;4.08;;;;;;;24.16;63.04;100544.06;1742845;80;21066;-70
2021/07/13 03:59:06;;;;;;;5.78;3.95;;;;;;;24.24;62.60;100543.85;1736092;80;21071;-66
2021/07/13 04:01:34;;;;;;;6.30;4.22;;;;;;;24.31;62.34;100547.88;1739932;80;21141;-67
2021/07/13 04:04:00;;;;;;;6.20;4.20;;;;;;;24.36;61.72;100544.53;1755407;80;21101;-68
2021/07/13 04:06:27;;;;;;;7.42;4.30;;;;;;;24.38;61.98;100542.48;1737454;81;21937;-68
2021/07/13 04:08:55;;;;;;;7.05;4.78;;;;;;;24.40;61.87;100551.16;1746354;80;21606;-68
2021/07/13 04:11:24;;;;;;;6.10;4.25;;;;;;;24.44;61.50;100555.07;1747763;81;21054;-67
2021/07/13 04:13:52;;;;;;;7.70;4.10;;;;;;;24.47;60.90;100561.38;1744833;81;21106;-69
2021/07/13 04:16:19;;;;;;;6.28;3.72;;;;;;;24.47;60.91;100560.03;1739371;80;21063;-67
2021/07/13 04:18:47;;;;;;;6.10;3.85;;;;;;;24.53;60.93;100557.86;1744623;80;21114;-68
2021/07/13 04:21:13;;;;;;;6.42;4.22;;;;;;;24.63;60.66;100554.77;1751157;80;21086;-67
2021/07/13 04:23:40;;;;;;;5.75;3.55;;;;;;;24.72;60.33;100556.17;1739406;80;21109;-67
2021/07/13 04:26:07;;;;;;;7.08;4.17;;;;;;;24.81;59.61;100566.17;1744697;81;21081;-69
2021/07/13 04:28:34;;;;;;;6.08;3.15;;;;;;;24.86;59.73;100565.02;1741342;81;21063;-68
2021/07/13 04:31:01;;;;;;;6.35;3.95;;;;;;;24.89;59.04;100560.56;1735701;81;21063;-68
2021/07/13 04:33:28;;;;;;;6.70;3.90;;;;;;;24.95;58.84;100565.10;1741340;81;21053;-68
2021/07/13 04:35:55;;;;;;;8.20;4.55;;;;;;;25.01;58.96;100568.27;1735837;80;21576;-68
2021/07/13 04:38:21;;;;;;;6.28;4.10;;;;;;;25.05;58.06;100557.92;1743571;81;21058;-67
2021/07/13 04:40:48;;;;;;;7.30;4.53;;;;;;;25.07;58.75;100558.52;1750593;80;21081;-69
2021/07/13 04:43:15;;;;;;;6.47;4.08;;;;;;;25.10;58.48;100555.91;1742561;80;21111;-67
2021/07/13 04:45:41;;;;;;;6.35;3.90;;;;;;;25.14;58.50;100555.80;1735687;80;21632;-68
2021/07/13 04:48:07;;;;;;;6.85;3.95;;;;;;;25.16;58.51;100555.87;1742005;80;21121;-65
2021/07/13 04:50:36;;;;;;;5.72;3.15;;;;;;;25.20;58.62;100562.50;1743375;80;21149;-67
2021/07/13 04:53:03;;;;;;;5.22;3.30;;;;;;;25.29;57.78;100563.09;1752924;80;21113;-68
2021/07/13 04:55:30;;;;;;;7.72;3.77;;;;;;;25.36;57.23;100558.49;1744549;80;21058;-68
2021/07/13 04:57:57;;;;;;;6.78;3.80;;;;;;;25.39;56.73;100558.59;1736607;80;21074;-69
2021/07/13 05:00:24;;;;;;;7.62;3.85;;;;;;;25.42;56.26;100552.78;1730326;81;21584;-69
2021/07/13 05:02:52;;;;;;;6.60;3.90;;;;;;;25.42;55.98;100551.44;1742930;81;21118;-70
2021/07/13 05:05:18;;;;;;;5.37;3.50;;;;;;;25.44;55.95;100547.17;1740033;80;21066;-68
2021/07/13 05:07:45;;;;;;;6.20;3.50;;;;;;;25.44;55.31;100548.52;1749224;80;21911;-69
2021/07/13 05:10:13;;;;;;;7.05;3.98;;;;;;;25.42;55.98;100546.55;1743008;80;21078;-70
2021/07/13 05:12:40;;;;;;;5.60;3.60;;;;;;;25.42;55.66;100543.35;1741854;80;21180;-73
2021/07/13 05:15:09;;;;;;;6.25;4.05;;;;;;;25.42;55.18;100537.12;1742174;80;21125;-71
2021/07/13 05:17:36;;;;;;;5.65;3.58;;;;;;;25.39;55.44;100533.83;1721569;80;21150;-67
2021/07/13 05:20:06;;;;;;;6.90;4.10;;;;;;;25.37;55.55;100529.18;1742752;80;21119;-69
2021/07/13 05:22:34;;;;;;;6.42;3.90;;;;;;;25.36;55.78;100526.17;1736634;81;21097;-67
2021/07/13 05:25:04;;;;;;;7.87;4.30;;;;;;;25.37;55.82;100526.48;1738718;80;21133;-68
2021/07/13 05:27:32;;;;;;;6.62;3.67;;;;;;;25.38;56.22;100528.13;1739149;80;21078;-66
2021/07/13 05:29:59;;;;;;;6.72;3.33;;;;;;;25.43;56.58;100528.01;1739592;80;21078;-68
2021/07/13 05:32:25;;;;;;;6.58;4.00;;;;;;;25.51;56.78;100531.26;1746544;80;21747;-67
2021/07/13 05:34:52;;;;;;;7.55;4.42;;;;;;;25.59;56.80;100528.83;1727790;81;21080;-68
2021/07/13 05:37:18;;;;;;;6.97;3.95;;;;;;;25.62;56.45;100530.25;1734102;80;21176;-67
2021/07/13 05:39:45;;;;;;;5.50;3.40;;;;;;;25.62;56.49;100527.55;1724012;80;21483;-70
2021/07/13 05:42:11;;;;;;;5.58;3.45;;;;;;;25.62;56.63;100539.68;1739928;80;21525;-70
2021/07/13 05:44:38;;;;;;;6.55;4.08;;;;;;;25.66;56.62;100534.17;1705722;81;22227;-69
2021/07/13 05:47:05;;;;;;;6.92;4.35;;;;;;;25.71;56.53;100536.50;1715394;81;21113;-73
2021/07/13 05:49:32;;;;;;;10.85;4.10;;;;;;;25.76;56.16;100535.32;1745707;80;21145;-75
2021/07/13 05:52:00;;;;;;;6.28;4.25;;;;;;;25.84;55.87;100528.00;1738467;80;21117;-72
2021/07/13 05:54:27;;;;;;;5.58;3.72;;;;;;;25.89;56.11;100533.55;1744271;80;21121;-73
2021/07/13 06:00:09;;;;;;;9.43;4.85;;;;;;;26.00;56.16;100527.47;1800529;78;22784;-71
2021/07/13 06:02:43;;;;;;;6.70;4.22;;;;;;;26.07;56.04;100534.97;1769645;79;21073;-67
2021/07/13 06:05:10;;;;;;;7.37;4.65;;;;;;;26.20;55.40;100538.61;1773458;78;21491;-68
2021/07/13 06:07:47;;;;;;;6.67;4.10;;;;;;;26.26;55.01;100540.39;1775675;79;21064;-69
2021/07/13 06:10:16;;;;;;;6.53;4.35;;;;;;;26.35;54.77;100536.91;1769505;79;21125;-69
2021/07/13 06:12:45;;;;;;;6.62;4.97;;;;;;;26.43;54.32;100542.02;1769953;79;21010;-67
2021/07/13 06:15:13;;;;;;;7.53;4.60;;;;;;;26.48;54.28;100538.12;1771529;78;21502;-66
2021/07/13 06:17:41;;;;;;;7.22;4.47;;;;;;;26.53;54.17;100542.31;1746049;80;21227;-67
2021/07/13 06:20:11;;;;;;;7.42;4.83;;;;;;;26.56;54.02;100543.72;1738131;80;21624;-69
2021/07/13 06:22:37;;;;;;;7.83;4.62;;;;;;;26.64;54.16;100544.80;1710081;81;21149;-66
2021/07/13 06:25:05;;;;;;;6.92;3.90;;;;;;;26.69;53.64;100538.20;1678645;83;21524;-63
2021/07/13 06:27:32;;;;;;;7.55;5.08;;;;;;;26.73;53.73;100534.53;1712140;83;21600;-63
2021/07/13 06:29:58;;;;;;;7.22;4.83;;;;;;;26.76;53.78;100541.64;1705755;81;21380;-63
2021/07/13 06:32:25;;;;;;;7.92;4.60;;;;;;;26.80;54.18;100538.80;1711651;81;21616;-62
2021/07/13 06:34:51;;;;;;;7.53;4.83;;;;;;;26.85;53.69;100537.59;1704610;82;21101;-65
2021/07/13 06:37:18;;;;;;;9.85;5.08;;;;;;;26.91;53.86;100535.85;1707986;81;21633;-63
2021/07/13 06:39:44;;;;;;;8.83;4.83;;;;;;;26.96;54.34;100534.64;1716507;82;21044;-63
2021/07/13 06:42:11;;;;;;;10.20;5.20;;;;;;;26.98;53.51;100533.06;1707880;82;21074;-63
2021/07/13 06:44:37;;;;;;;8.50;4.78;;;;;;;26.95;53.50;100533.02;1712602;81;21130;-64
2021/07/13 06:47:04;;;;;;;6.50;4.75;;;;;;;26.96;53.96;100533.30;1712340;83;21094;-63
2021/07/13 06:49:31;;;;;;;7.62;5.80;;;;;;;26.98;53.93;100533.91;1716229;83;21046;-66
2021/07/13 06:51:58;;;;;;;6.87;5.22;;;;;;;27.01;53.66;100532.08;1715460;81;21129;-67
2021/07/13 06:54:25;;;;;;;8.03;5.28;;;;;;;27.06;53.78;100533.57;1716404;81;21118;-64
2021/07/13 06:56:51;;;;;;;7.17;5.00;;;;;;;27.15;53.77;100534.60;1714558;83;21138;-64
2021/07/13 06:59:18;;;;;;;8.88;5.17;;;;;;;27.20;52.80;100526.13;1707174;82;21181;-64
2021/07/13 07:01:46;;;;;;;8.35;5.78;;;;;;;27.24;52.71;100529.19;1674211;83;21133;-64
2021/07/13 07:04:12;;;;;;;9.03;5.55;;;;;;;27.28;51.96;100533.60;1696822;82;21130;-64
2021/07/13 07:06:39;;;;;;;8.98;5.72;;;;;;;27.30;52.23;100532.88;1751613;80;21173;-64
2021/07/13 07:09:06;;;;;;;6.62;4.92;;;;;;;27.32;52.21;100534.30;1673430;83;21126;-63
2021/07/13 07:11:32;;;;;;;7.80;5.72;;;;;;;27.38;52.00;100536.06;1757999;80;21097;-63
2021/07/13 07:13:59;;;;;;;7.45;5.47;;;;;;;27.45;51.29;100525.16;1754970;80;21051;-64
2021/07/13 07:16:27;;;;;;;8.10;4.62;;;;;;;27.48;51.32;100524.70;1763237;79;21106;-64
2021/07/13 07:18:54;;;;;;;8.25;6.17;;;;;;;27.53;51.77;100525.36;1752193;80;21169;-64
2021/07/13 07:21:21;;;;;;;7.28;5.60;;;;;;;27.59;51.44;100519.86;1731825;79;22254;-64
2021/07/13 07:23:48;;;;;;;8.05;5.37;;;;;;;27.65;51.32;100518.63;1760710;79;21079;-64
2021/07/13 07:26:16;;;;;;;8.00;5.55;;;;;;;27.67;50.97;100521.91;1760123;79;21082;-67
2021/07/13 07:28:43;;;;;;;7.70;5.20;;;;;;;27.65;50.88;100525.38;1758628;80;21319;-65
2021/07/13 07:31:10;;;;;;;7.60;5.45;;;;;;;27.63;50.71;100523.45;1763889;80;22512;-64
2021/07/13 07:33:36;;;;;;;9.05;5.40;;;;;;;27.63;50.33;100525.61;1755990;80;21082;-64
2021/07/13 07:36:03;;;;;;;7.25;5.28;;;;;;;27.63;50.40;100526.16;1757715;80;21541;-65
2021/07/13 07:38:30;;;;;;;6.85;5.30;;;;;;;27.67;50.68;100522.76;1779480;79;21098;-66
2021/07/13 07:40:56;;;;;;;8.28;5.87;;;;;;;27.70;50.45;100520.10;1765668;79;21612;-67
2021/07/13 07:43:23;;;;;;;6.37;4.72;;;;;;;27.75;50.15;100524.28;1769358;79;21093;-68
2021/07/13 07:45:50;;;;;;;7.67;5.53;;;;;;;27.81;50.24;100523.36;1769883;80;21058;-66
2021/07/13 07:48:17;;;;;;;6.60;5.08;;;;;;;27.87;50.51;100521.05;1762056;79;21543;-66
2021/07/13 07:50:43;;;;;;;6.65;4.30;;;;;;;27.96;51.01;100521.03;1775043;80;21113;-68
2021/07/13 07:53:10;;;;;;;6.62;5.20;;;;;;;28.05;50.29;100516.09;1751601;79;21113;-66
2021/07/13 07:55:38;;;;;;;7.70;5.25;;;;;;;28.13;49.96;100523.86;1758849;80;21074;-64
2021/07/13 07:58:04;;;;;;;8.03;6.00;;;;;;;28.17;49.18;100520.14;1726815;80;21099;-68
2021/07/13 08:00:31;;;;;;;7.40;4.42;;;;;;;28.25;49.42;100518.98;1751523;80;21590;-67
2021/07/13 08:02:57;;;;;;;7.40;5.22;;;;;;;28.31;50.37;100524.77;1741167;80;21082;-62
2021/07/13 08:05:29;;;;;;;6.37;4.78;;;;;;;28.38;49.48;100526.00;1675364;83;21121;-66
2021/07/13 08:07:57;;;;;;;6.67;5.33;;;;;;;28.41;49.08;100517.41;1747121;80;21049;-63
2021/07/13 08:10:24;;;;;;;9.25;4.90;;;;;;;28.40;49.16;100521.19;1716598;81;21571;-63
2021/07/13 08:12:52;;;;;;;6.30;4.70;;;;;;;28.39;48.91;100512.77;1759568;80;21086;-63
2021/07/13 08:15:18;;;;;;;6.62;5.17;;;;;;;28.39;48.86;100516.29;1739367;80;21082;-62
2021/07/13 08:17:45;;;;;;;7.87;5.00;;;;;;;28.43;48.99;100522.05;1716936;82;21083;-62
2021/07/13 08:20:13;;;;;;;7.33;5.28;;;;;;;28.49;48.92;100512.98;1720800;81;21930;-62
2021/07/13 08:22:45;;;;;;;7.05;5.17;;;;;;;28.52;48.47;100509.80;1756424;80;21624;-61
2021/07/13 08:25:11;;;;;;;8.50;5.40;;;;;;;28.51;49.07;100510.34;1753110;80;21098;-61
2021/07/13 08:27:38;;;;;;;7.58;5.10;;;;;;;28.52;48.94;100510.62;1754661;80;21058;-62
2021/07/13 08:30:14;;;;;;;8.18;5.37;;;;;;;28.56;49.37;100504.22;1749406;80;21043;-62
2021/07/13 08:32:38;;;;;;;7.20;5.50;;;;;;;28.65;48.85;100513.62;1747485;80;21038;-64
2021/07/13 08:35:06;;;;;;;7.22;5.40;;;;;;;28.72;48.73;100515.66;1755281;80;21029;-63
2021/07/13 08:37:35;;;;;;;7.47;5.40;;;;;;;28.77;48.77;100511.42;1744453;80;21038;-62
2021/07/13 08:40:08;;;;;;;6.80;5.12;;;;;;;28.81;48.10;100512.58;1724818;80;21102;-63
2021/07/13 08:42:37;;;;;;;6.62;4.97;;;;;;;28.83;48.73;100509.09;1745754;80;21121;-68
2021/07/13 08:45:08;;;;;;;7.08;5.45;;;;;;;28.87;48.46;100511.63;1737796;80;21061;-61
2021/07/13 08:47:39;;;;;;;7.05;5.03;;;;;;;28.93;47.11;100514.70;1748708;80;21105;-62
2021/07/13 08:50:09;;;;;;;7.85;5.30;;;;;;;28.88;47.49;100519.51;1742922;80;21200;-66
2021/07/13 08:52:37;;;;;;;6.72;4.90;;;;;;;28.88;48.24;100518.66;1712440;80;21669;-64
2021/07/13 08:55:05;;;;;;;6.60;4.95;;;;;;;28.95;47.80;100517.16;1719837;81;21039;-66
2021/07/13 08:57:31;;;;;;;6.75;4.87;;;;;;;29.03;47.94;100516.27;1750055;80;21076;-62
2021/07/13 08:59:58;;;;;;;7.22;4.85;;;;;;;29.12;48.20;100509.92;1754132;79;21046;-63
2021/07/13 09:02:24;;;;;;;6.37;4.45;;;;;;;29.19;47.96;100513.33;1750703;81;21530;-64
2021/07/13 09:04:50;;;;;;;11.85;5.28;;;;;;;29.28;46.59;100504.27;1709498;82;21059;-67
2021/07/13 09:07:18;;;;;;;6.75;5.00;;;;;;;29.33;47.44;100509.77;1742252;81;21392;-64
2021/07/13 09:09:47;;;;;;;7.10;5.53;;;;;;;29.40;46.45;100508.27;1750543;79;21092;-64
2021/07/13 09:12:19;;;;;;;7.53;5.55;;;;;;;29.42;45.73;100509.67;1741798;81;21604;-65
2021/07/13 09:14:55;;;;;;;8.63;4.42;;;;;;;29.44;46.05;100504.02;1763688;79;22371;-67
2021/07/13 09:17:33;;;;;;;9.38;5.20;;;;;;;29.53;46.94;100505.77;1754053;80;21077;-61
2021/07/13 09:20:27;;;;;;;7.62;4.67;;;;;;;29.61;47.04;100499.41;1733057;81;21528;-67
2021/07/13 09:23:04;;;;;;;6.90;4.97;;;;;;;29.72;46.44;100500.91;1715966;81;21078;-65
2021/07/13 09:25:35;;;;;;;6.83;4.95;;;;;;;29.80;45.71;100505.41;1681514;83;21031;-66
2021/07/13 09:28:19;;;;;;;6.58;4.92;;;;;;;29.86;46.46;100509.05;1757261;79;21028;-65
2021/07/13 09:30:56;;;;;;;7.12;5.15;;;;;;;29.92;45.70;100495.02;1737220;81;21661;-66
2021/07/13 09:33:27;;;;;;;7.78;5.35;;;;;;;29.93;45.06;100499.38;1726594;81;20948;-64
2021/07/13 09:36:05;;;;;;;7.50;4.47;;;;;;;29.90;44.86;100493.91;1763439;81;21306;-66
2021/07/13 09:38:50;;;;;;;6.78;4.42;;;;;;;29.93;45.02;100502.09;1745221;79;21101;-64
2021/07/13 09:41:18;;;;;;;9.67;5.43;;;;;;;29.99;45.53;100492.42;1763117;79;21039;-65
2021/07/13 09:44:00;;;;;;;6.30;4.70;;;;;;;30.10;45.64;100493.92;1746483;81;21110;-65
2021/07/13 09:46:36;;;;;;;6.30;4.83;;;;;;;30.20;46.04;100495.41;1736875;81;21110;-65
2021/07/13 09:49:20;;;;;;;6.75;4.60;;;;;;;30.33;44.43;100501.02;1754585;79;21761;-64
2021/07/13 09:52:01;;;;;;;7.03;4.42;;;;;;;30.42;44.00;100499.53;1722608;81;21119;-66
2021/07/13 09:54:35;;;;;;;7.37;5.35;;;;;;;30.50;45.15;100503.16;1705377;81;21062;-64
2021/07/13 09:57:16;;;;;;;5.95;4.67;;;;;;;30.62;44.35;100500.31;1749825;79;21101;-63
2021/07/13 09:59:49;;;;;;;6.28;4.45;;;;;;;30.70;43.78;100497.70;1761033;80;21117;-64
2021/07/13 10:02:17;;;;;;;9.05;5.33;;;;;;;30.75;43.96;100495.85;1757252;80;21195;-63
2021/07/13 10:04:43;;;;;;;7.17;5.40;;;;;;;30.84;44.41;100489.97;1757248;79;21068;-69
2021/07/13 10:07:19;;;;;;;5.87;4.28;;;;;;;30.88;43.04;100490.57;1755786;80;21169;-69
2021/07/13 10:09:51;;;;;;;7.00;4.92;;;;;;;30.85;42.84;100492.44;1754777;80;21595;-70
2021/07/13 10:12:24;;;;;;;7.05;4.20;;;;;;;30.83;43.51;100495.11;1750344;80;21165;-71
2021/07/13 10:14:56;;;;;;;6.60;4.85;;;;;;;30.85;43.74;100489.72;1753264;80;21075;-68
2021/07/13 10:17:30;;;;;;;6.95;5.17;;;;;;;30.93;43.63;100482.47;1733829;80;21833;-71
2021/07/13 10:20:09;;;;;;;6.92;4.42;;;;;;;31.01;42.51;100487.19;1760848;79;21125;-74
2021/07/13 10:22:44;;;;;;;7.87;4.62;;;;;;;31.01;42.56;100487.99;1754858;80;21515;-70
2021/07/13 10:25:12;;;;;;;6.35;4.85;;;;;;;31.04;42.09;100490.20;1759900;80;21098;-71
2021/07/13 10:27:41;;;;;;;6.50;4.53;;;;;;;31.12;43.02;100488.94;1753546;79;21091;-72
2021/07/13 10:30:19;;;;;;;5.50;4.25;;;;;;;31.21;42.76;100493.36;1691170;82;21059;-69
2021/07/13 10:32:46;;;;;;;7.17;5.28;;;;;;;31.30;42.99;100492.63;1752151;80;21054;-69
2021/07/13 10:35:30;;;;;;;7.08;4.75;;;;;;;31.39;43.19;100484.81;1758550;80;21123;-68
2021/07/13 10:37:58;;;;;;;5.97;4.72;;;;;;;31.42;42.59;100489.74;1736865;80;21101;-70
2021/07/13 10:40:39;;;;;;;9.75;5.10;;;;;;;31.46;41.82;100497.64;1758541;80;21157;-69
2021/07/13 10:43:24;;;;;;;6.50;5.22;;;;;;;31.51;42.45;100492.83;1754591;79;21584;-69
2021/07/13 10:46:11;;;;;;;7.70;4.72;;;;;;;31.64;42.95;100492.91;1753689;80;22134;-71
2021/07/13 10:48:38;;;;;;;6.62;4.95;;;;;;;31.71;42.29;100492.16;1753990;79;21046;-70
2021/07/13 10:51:11;;;;;;;6.83;4.85;;;;;;;31.73;41.35;100490.00;1756095;80;21051;-70
2021/07/13 10:53:41;;;;;;;6.25;4.60;;;;;;;31.73;41.34;100490.55;1756862;79;21541;-70
2021/07/13 10:56:19;;;;;;;6.08;5.05;;;;;;;31.73;41.65;100483.20;1755823;79;21012;-70
2021/07/13 10:58:51;;;;;;;6.47;4.95;;;;;;;31.76;41.92;100481.31;1754545;79;21102;-69
2021/07/13 11:01:22;;;;;;;5.85;4.45;;;;;;;31.75;42.18;100478.30;1764038;79;21109;-70
2021/07/13 11:03:50;;;;;;;10.35;4.95;;;;;;;31.74;41.21;100478.56;1766327;80;21179;-71
2021/07/13 11:06:19;;;;;;;6.78;4.60;;;;;;;31.75;41.15;100480.22;1741580;80;21394;-70
2021/07/13 11:08:50;;;;;;;7.03;4.15;;;;;;;31.75;40.96;100478.30;1770303;80;21050;-68
2021/07/13 11:11:34;;;;;;;6.12;4.25;;;;;;;31.76;40.67;100475.06;1743625;80;21680;-71
2021/07/13 11:14:06;;;;;;;7.25;4.58;;;;;;;31.74;41.67;100478.05;1773825;79;21058;-70
2021/07/13 11:16:39;;;;;;;6.10;4.75;;;;;;;31.77;41.36;100478.86;1767920;80;21032;-70
2021/07/13 11:19:16;;;;;;;6.90;4.47;;;;;;;31.86;41.89;100475.13;1735912;79;21082;-69
2021/07/13 11:21:50;;;;;;;7.75;4.87;;;;;;;31.94;40.99;100477.87;1767394;80;21091;-66
2021/07/13 11:24:23;;;;;;;6.53;3.98;;;;;;;31.98;40.96;100470.29;1769190;79;21082;-67
2021/07/13 11:27:00;;;;;;;8.25;4.78;;;;;;;32.03;41.22;100479.03;1763640;80;21546;-68
2021/07/13 11:29:29;;;;;;;5.70;4.30;;;;;;;32.09;40.24;100471.73;1764475;79;21066;-69
2021/07/13 11:32:02;;;;;;;8.35;5.17;;;;;;;32.16;40.74;100469.59;1756205;80;21098;-68
2021/07/13 11:34:36;;;;;;;7.15;4.33;;;;;;;32.27;41.58;100474.55;1762344;80;21085;-69
2021/07/13 11:37:05;;;;;;;6.25;4.90;;;;;;;32.36;40.50;100466.98;1756728;79;21143;-68
2021/07/13 11:39:34;;;;;;;7.37;4.60;;;;;;;32.43;40.79;100468.61;1765709;79;21073;-67